Time;durP1;ratioP1;P1;durP2;ratioP2;P2;SDS_P1;SDS_P2;PMS_P1;PMS_P2;Temp;Humidity;BMP_temperature;BMP_pressure;BME280_temperature;BME280_humidity;BME280_pressure;Samples;Min_cycle;Max_cycle;Signal;HPM_P1;HPM_P2
2022/06/25 00:00:36;;;;;;;9.13;6.00;;;21.50;99.90;;;21.93;76.00;100642.41;5094117;28;20463;-62
2022/06/25 00:03:04;;;;;;;11.60;5.88;;;21.50;99.90;;;22.04;75.59;100638.19;5112702;28;20075;-62
2022/06/25 00:05:33;;;;;;;8.60;6.57;;;21.60;99.90;;;22.09;75.31;100645.97;5112360;28;20040;-62
2022/06/25 00:08:01;;;;;;;7.90;6.30;;;21.60;99.90;;;22.09;75.24;100643.28;5112652;28;20074;-62
2022/06/25 00:10:30;;;;;;;11.60;6.68;;;21.60;99.90;;;22.11;75.24;100646.78;5111978;28;20194;-62
2022/06/25 00:12:57;;;;;;;10.02;6.63;;;21.60;99.90;;;22.12;75.20;100644.00;5111905;28;20100;-62
2022/06/25 00:15:25;;;;;;;10.50;6.88;;;21.70;99.90;;;22.12;75.36;100641.31;5112004;28;20118;-62
2022/06/25 00:17:55;;;;;;;9.48;6.90;;;21.70;99.90;;;22.15;75.31;100646.53;5112014;28;20040;-62
2022/06/25 00:20:23;;;;;;;8.75;6.38;;;21.70;99.90;;;21.69;75.29;100562.91;5112377;28;20027;-62
2022/06/25 00:22:51;;;;;;;11.07;6.80;;;21.70;99.90;;;22.20;75.12;100643.59;5114177;28;20086;-62
2022/06/25 00:25:20;;;;;;;8.25;6.40;;;21.70;99.90;;;22.23;75.20;100648.78;5116246;28;20508;-62
2022/06/25 00:27:49;;;;;;;7.82;6.55;;;21.80;99.90;;;22.26;75.04;100638.69;5116077;28;20050;-62
2022/06/25 00:30:17;;;;;;;10.18;6.75;;;21.80;99.90;;;22.21;75.05;100637.22;5097584;28;20042;-62
2022/06/25 00:32:45;;;;;;;8.27;6.15;;;21.80;99.90;;;22.15;75.24;100638.44;5115866;28;20059;-62
2022/06/25 00:35:15;;;;;;;9.43;6.53;;;21.80;99.90;;;22.02;75.54;100637.38;5097833;28;20130;-62
2022/06/25 00:37:44;;;;;;;9.52;6.75;;;21.70;99.90;;;22.04;75.85;100640.88;5116263;28;20162;-62
2022/06/25 00:40:13;;;;;;;11.23;6.20;;;21.70;99.90;;;22.03;75.81;100647.19;5116152;28;20114;-62
2022/06/25 00:42:43;;;;;;;7.82;6.47;;;21.60;99.90;;;21.94;76.21;100622.59;5115822;28;20067;-62
2022/06/25 00:45:11;;;;;;;12.95;7.07;;;21.60;99.90;;;22.03;76.40;100643.63;5098219;28;20059;-62
2022/06/25 00:47:40;;;;;;;11.38;6.57;;;21.60;99.90;;;21.97;76.66;100636.75;5116029;28;20044;-62
2022/06/25 00:50:10;;;;;;;8.20;6.80;;;21.50;99.90;;;22.03;76.48;100649.88;5115767;28;20043;-62
2022/06/25 00:52:42;;;;;;;;;;;21.50;99.90;;;22.01;76.67;100646.41;5116677;28;20043;-62
2022/06/25 00:55:17;;;;;;;9.18;7.07;;;21.60;99.90;;;22.00;76.93;100642.00;5115835;28;20376;-62
2022/06/25 00:57:46;;;;;;;;;;;21.50;99.90;;;21.91;77.37;100633.53;5116168;28;20074;-62
2022/06/25 01:00:17;;;;;;;9.27;7.70;;;21.50;99.90;;;21.92;77.37;100641.53;5115451;28;19919;-62
2022/06/25 01:02:48;;;;;;;9.93;7.05;;;21.50;99.90;;;21.92;77.55;100646.03;5097323;28;20059;-61
2022/06/25 01:05:17;;;;;;;10.85;8.07;;;21.50;99.90;;;21.85;78.01;100645.53;5097222;28;20096;-62
2022/06/25 01:07:49;;;;;;;12.40;8.90;;;21.40;99.90;;;21.79;78.23;100653.03;5115203;28;20058;-62
2022/06/25 01:10:18;;;;;;;14.65;8.68;;;21.40;99.90;;;21.82;78.11;100645.69;5115507;28;20044;-62
2022/06/25 01:12:47;;;;;;;13.77;9.18;;;21.40;99.90;;;21.84;78.17;100656.34;5114922;28;20369;-62
2022/06/25 01:15:18;;;;;;;15.48;9.00;;;21.40;99.90;;;21.82;78.21;100655.56;5115347;28;20139;-62
2022/06/25 01:17:50;;;;;;;17.45;11.88;;;21.40;99.90;;;21.63;78.60;100649.41;5096680;28;20053;-62
2022/06/25 01:20:24;;;;;;;18.35;12.00;;;21.30;99.90;;;21.72;78.92;100657.84;5096870;28;20431;-62
2022/06/25 01:22:54;;;;;;;24.25;13.73;;;21.30;99.90;;;21.76;79.00;100662.13;5093076;28;20048;-62
2022/06/25 01:25:24;;;;;;;22.38;14.20;;;21.30;99.90;;;21.68;79.31;100672.44;5093434;28;20138;-62
2022/06/25 01:27:52;;;;;;;23.23;14.10;;;21.30;99.90;;;21.55;79.31;100663.28;5094605;28;20048;-62
2022/06/25 01:30:21;;;;;;;24.50;14.45;;;21.20;99.90;;;21.67;79.45;100680.59;5094798;28;20074;-62
2022/06/25 01:32:49;;;;;;;23.42;13.63;;;21.30;99.90;;;21.66;79.94;100689.66;5094113;28;20044;-62
2022/06/25 01:35:17;;;;;;;22.73;13.48;;;21.20;99.90;;;21.66;80.07;100682.41;5092019;28;20481;-62
2022/06/25 01:37:46;;;;;;;22.83;13.25;;;21.20;99.90;;;21.67;80.17;100686.88;5094120;28;20404;-62
2022/06/25 01:40:16;;;;;;;18.55;12.85;;;21.20;99.90;;;21.67;80.22;100683.28;5094376;28;20032;-62
2022/06/25 01:42:59;;;;;;;20.35;12.45;;;21.30;99.90;;;21.68;80.05;100688.59;5094288;28;20367;-62
2022/06/25 01:45:31;;;;;;;17.92;11.38;;;21.30;99.90;;;21.50;80.06;100670.72;5092987;28;20093;-62
2022/06/25 01:48:00;;;;;;;17.13;11.05;;;21.20;99.90;;;21.69;79.66;100693.03;5094596;28;20047;-62
2022/06/25 01:50:29;;;;;;;17.27;11.55;;;21.30;99.90;;;21.73;79.40;100693.75;5094242;28;20040;-62
2022/06/25 01:52:58;;;;;;;19.67;10.95;;;21.30;99.90;;;21.71;79.10;100699.22;5092652;28;20453;-62
2022/06/25 01:55:28;;;;;;;18.65;10.13;;;21.30;99.90;;;21.55;79.44;100700.97;5094057;28;20048;-62
2022/06/25 01:57:56;;;;;;;16.15;9.68;;;21.20;99.90;;;21.52;79.34;100693.06;5094450;28;20470;-62
2022/06/25 02:00:28;;;;;;;16.13;9.75;;;21.10;99.90;;;20.93;79.28;100598.34;5092822;28;20048;-62
2022/06/25 02:03:02;;;;;;;15.30;9.60;;;21.10;99.90;;;21.46;79.25;100696.94;5093113;28;20072;-61
2022/06/25 02:08:19;;;;;;;13.52;8.80;;;21.10;99.90;;;21.39;79.70;100702.69;5092616;28;20040;-62
2022/06/25 02:10:49;;;;;;;17.08;9.23;;;21.00;99.90;;;21.40;79.88;100708.03;5093570;28;20429;-62
2022/06/25 02:13:18;;;;;;;14.57;8.70;;;21.00;99.90;;;21.45;79.64;100726.59;5093719;28;20070;-62
2022/06/25 02:15:46;;;;;;;13.65;8.00;;;21.10;99.90;;;21.51;79.45;100710.16;5092184;28;20135;-62
2022/06/25 02:18:15;;;;;;;15.02;8.25;;;21.10;99.90;;;21.53;79.45;100708.25;5093739;28;20044;-62
2022/06/25 02:20:44;;;;;;;16.33;8.15;;;21.10;99.90;;;21.41;78.98;100687.34;5093591;28;20440;-62
2022/06/25 02:23:15;;;;;;;19.15;8.45;;;21.10;99.90;;;21.41;79.44;100725.00;5100212;28;20139;-62
2022/06/25 02:25:44;;;;;;;14.07;8.10;;;21.10;99.90;;;21.28;79.47;100707.75;5095317;28;20078;-61
2022/06/25 02:28:17;;;;;;;13.38;7.50;;;21.00;99.90;;;21.44;79.31;100716.81;5113993;28;20471;-62
2022/06/25 02:30:46;;;;;;;13.75;7.68;;;21.00;99.90;;;21.42;78.71;100726.78;5113741;28;20361;-62
2022/06/25 02:33:16;;;;;;;12.80;7.90;;;21.00;99.90;;;21.20;78.40;100667.78;5095148;28;20097;-62
2022/06/25 02:35:46;;;;;;;14.32;6.85;;;21.00;99.90;;;21.40;77.76;100717.91;5095316;28;20124;-62
2022/06/25 02:38:17;;;;;;;8.80;6.28;;;21.00;99.90;;;21.41;77.31;100725.91;5095375;28;20465;-61
2022/06/25 02:40:51;;;;;;;10.45;6.22;;;21.00;99.90;;;21.45;76.82;100723.91;5095345;28;20046;-62
2022/06/25 02:43:22;;;;;;;12.93;6.38;;;21.00;99.90;;;21.41;77.09;100733.09;5095359;28;20086;-62
2022/06/25 02:46:02;;;;;;;13.27;7.00;;;21.00;99.90;;;21.38;77.26;100733.25;5094666;28;20063;-62
2022/06/25 02:48:30;;;;;;;11.90;6.30;;;21.00;99.90;;;21.35;77.15;100738.81;5095042;28;20047;-62
2022/06/25 02:50:58;;;;;;;8.85;6.25;;;20.90;99.90;;;21.31;76.57;100739.91;5113252;28;20138;-62
2022/06/25 02:53:27;;;;;;;8.98;6.13;;;20.90;99.90;;;21.31;76.45;100742.59;5094972;28;20101;-62
2022/06/25 02:58:55;;;;;;;9.43;5.43;;;20.90;99.90;;;21.00;76.39;100715.47;5094999;28;20040;-62
2022/06/25 03:01:44;;;;;;;8.95;5.68;;;20.90;99.90;;;21.08;76.46;100732.97;5112227;28;20047;-62
2022/06/25 03:04:13;;;;;;;7.90;5.78;;;20.80;99.90;;;21.22;76.58;100743.94;5094844;28;20232;-62
2022/06/25 03:06:42;;;;;;;10.60;6.07;;;20.80;99.90;;;21.22;76.43;100745.75;5094687;28;20195;-62
2022/06/25 03:09:10;;;;;;;11.70;5.55;;;20.80;99.90;;;21.25;75.92;100750.97;5094644;28;20404;-62
2022/06/25 03:11:39;;;;;;;9.85;5.47;;;20.90;99.90;;;21.25;75.40;100750.97;5094324;28;20044;-62
2022/06/25 03:14:09;;;;;;;8.80;5.70;;;20.80;99.90;;;21.26;75.17;100756.28;5094073;28;20088;-62
2022/06/25 03:16:38;;;;;;;8.37;5.43;;;20.90;99.90;;;21.25;74.94;100756.38;5112874;28;20036;-62
2022/06/25 03:19:09;;;;;;;;;;;20.90;99.90;;;21.09;74.77;100748.19;5095292;28;20293;-62
2022/06/25 03:21:53;;;;;;;6.25;4.80;;;20.80;99.90;;;21.10;74.25;100757.13;5094565;28;19926;-62
2022/06/25 03:24:23;;;;;;;10.77;5.75;;;20.70;99.90;;;21.13;74.01;100756.97;5094489;28;20131;-62
2022/06/25 03:26:52;;;;;;;8.63;5.75;;;20.70;99.90;;;21.11;74.30;100761.56;5094573;28;20067;-62
2022/06/25 03:29:21;;;;;;;8.40;5.85;;;20.80;99.90;;;21.13;74.52;100759.66;5094519;28;20501;-62
2022/06/25 03:31:50;;;;;;;10.57;5.80;;;20.70;99.90;;;21.20;74.99;100771.84;5094316;28;20073;-62
2022/06/25 03:34:47;;;;;;;10.27;5.93;;;20.80;99.90;;;21.25;74.90;100772.50;5094474;28;20295;-62
2022/06/25 03:37:16;;;;;;;11.90;6.40;;;20.80;99.90;;;21.17;75.16;100764.81;5094284;28;20096;-61
2022/06/25 03:39:45;;;;;;;9.27;6.43;;;20.80;99.90;;;21.25;75.31;100772.50;5094310;28;20138;-61
2022/06/25 03:42:13;;;;;;;9.63;6.70;;;20.80;99.90;;;21.13;75.03;100787.44;5094408;28;20047;-62
2022/06/25 03:45:07;;;;;;;13.25;7.32;;;20.80;99.90;;;21.08;75.57;100783.25;5112804;28;20401;-61
2022/06/25 03:47:36;;;;;;;13.57;7.40;;;20.70;99.90;;;21.12;75.83;100792.88;5112951;28;20062;-61
2022/06/25 03:50:08;;;;;;;11.75;7.47;;;20.70;99.90;;;21.17;75.96;100793.53;5094078;28;20097;-63
2022/06/25 03:52:37;;;;;;;12.52;7.82;;;20.80;99.90;;;21.13;75.98;100787.44;5094258;28;20497;-63
2022/06/25 03:55:07;;;;;;;17.55;8.00;;;20.70;99.90;;;21.20;75.84;100801.44;5112213;28;20597;-64
2022/06/25 03:57:35;;;;;;;14.07;7.78;;;20.80;99.90;;;21.18;75.85;100800.66;5095966;28;20074;-62
2022/06/25 04:00:16;;;;;;;13.93;7.43;;;20.80;99.90;;;21.24;75.61;100803.03;5098467;28;20416;-62
2022/06/25 04:03:00;;;;;;;10.68;7.20;;;20.80;99.90;;;21.26;75.57;100802.03;5098425;28;20138;-63
2022/06/25 04:05:29;;;;;;;9.00;6.35;;;20.80;99.90;;;21.25;75.33;100807.50;5116591;28;20074;-63
2022/06/25 04:08:10;;;;;;;10.60;6.70;;;20.80;99.90;;;21.18;75.12;100814.97;5098612;28;20050;-62
2022/06/25 04:10:39;;;;;;;11.43;6.90;;;20.80;99.90;;;21.20;75.04;100804.13;5098398;28;20044;-62
2022/06/25 04:13:08;;;;;;;11.85;6.50;;;20.70;99.90;;;21.15;74.66;100801.69;5098160;28;20044;-62
2022/06/25 04:15:40;;;;;;;12.50;6.60;;;20.80;99.90;;;21.19;74.77;100805.09;5098231;28;20063;-62
2022/06/25 04:18:09;;;;;;;10.18;6.00;;;20.80;99.90;;;21.13;74.80;100808.09;5098210;28;20179;-62
2022/06/25 04:20:37;;;;;;;13.98;5.78;;;20.80;99.90;;;21.11;74.40;100797.41;5098002;28;20046;-62
2022/06/25 04:23:06;;;;;;;8.75;5.78;;;20.70;99.90;;;21.13;74.63;100810.78;5097952;28;20442;-62
2022/06/25 04:25:35;;;;;;;8.85;5.95;;;20.70;99.90;;;21.17;74.73;100798.91;5097869;28;20118;-62
2022/06/25 04:30:53;;;;;;;8.93;5.78;;;20.80;99.90;;;21.17;74.67;100813.25;5098473;28;20590;-62
2022/06/25 04:33:21;;;;;;;8.93;5.80;;;20.80;99.90;;;21.18;74.47;100803.34;5097972;28;20044;-61
2022/06/25 04:35:57;;;;;;;13.90;5.70;;;20.80;99.90;;;21.25;74.60;100810.19;5097915;28;20047;-62
2022/06/25 04:38:44;;;;;;;8.82;5.68;;;20.80;99.90;;;21.24;74.64;100812.00;5115946;28;20523;-61
2022/06/25 04:41:13;;;;;;;11.23;5.60;;;20.90;99.90;;;21.09;74.63;100809.19;5098101;28;20404;-61
2022/06/25 04:43:43;;;;;;;9.15;5.78;;;20.80;99.90;;;21.17;74.67;100817.75;5098050;28;20408;-61
2022/06/25 04:46:18;;;;;;;13.48;5.70;;;20.80;99.90;;;21.23;74.90;100828.22;5097462;28;20130;-61
2022/06/25 04:48:47;;;;;;;6.25;5.05;;;20.80;99.90;;;21.14;74.77;100829.53;5097905;28;20048;-61
2022/06/25 04:51:28;;;;;;;9.55;5.85;;;20.80;99.90;;;21.15;75.13;100836.66;5115712;28;20455;-62
2022/06/25 04:53:57;;;;;;;9.85;5.10;;;20.70;99.90;;;21.17;75.37;100847.34;5097515;28;20048;-62
2022/06/25 04:56:33;;;;;;;9.23;5.68;;;20.80;99.90;;;21.21;75.53;100840.88;5097275;28;20097;-61
2022/06/25 04:59:01;;;;;;;9.32;4.53;;;20.80;99.90;;;21.11;75.49;100840.44;5097282;28;20400;-62
2022/06/25 05:01:49;;;;;;;8.02;5.40;;;20.70;99.90;;;21.11;75.70;100853.03;5115576;28;20174;-61
2022/06/25 05:04:21;;;;;;;9.68;4.97;;;20.70;99.90;;;21.07;75.84;100848.72;5097763;28;20082;-62
2022/06/25 05:06:49;;;;;;;7.85;4.97;;;20.70;99.90;;;21.11;75.93;100851.22;5097329;28;20076;-62
2022/06/25 05:09:17;;;;;;;10.40;4.88;;;20.70;99.90;;;21.11;75.31;100851.22;5097662;28;20109;-61
2022/06/25 05:11:46;;;;;;;13.48;5.35;;;20.70;99.90;;;21.15;75.55;100858.19;5097858;28;20047;-61
2022/06/25 05:14:14;;;;;;;9.05;5.18;;;20.70;99.90;;;21.15;75.68;100849.25;5115333;28;20055;-61
2022/06/25 05:16:46;;;;;;;7.95;4.88;;;20.70;99.90;;;21.18;75.85;100852.66;5097555;28;20051;-61
2022/06/25 05:19:15;;;;;;;12.13;5.65;;;20.80;99.90;;;21.16;75.89;100853.66;5115257;28;20055;-61
2022/06/25 05:21:44;;;;;;;;;;;20.80;99.90;;;21.19;75.61;100864.28;5096965;28;20093;-61
2022/06/25 05:24:15;;;;;;;8.10;5.30;;;20.80;99.90;;;21.28;76.18;100848.56;5096862;28;19959;-61
2022/06/25 05:26:43;;;;;;;9.98;5.38;;;20.90;99.90;;;21.35;76.19;100865.31;5096725;28;20116;-61
2022/06/25 05:29:11;;;;;;;10.23;5.60;;;20.90;99.90;;;21.26;76.16;100855.84;5115187;28;20042;-61
2022/06/25 05:31:41;;;;;;;11.75;5.00;;;20.90;99.90;;;21.41;75.39;100864.97;5096786;28;20040;-61
2022/06/25 05:34:10;;;;;;;6.80;5.18;;;21.00;99.90;;;21.47;75.20;100865.56;5096497;28;20096;-61
2022/06/25 05:36:40;;;;;;;8.00;5.10;;;21.10;99.90;;;21.44;74.52;100871.09;5096852;28;20072;-61
2022/06/25 05:39:08;;;;;;;8.02;4.78;;;21.00;99.90;;;21.42;74.50;100864.03;5096607;28;20150;-62
2022/06/25 05:41:37;;;;;;;6.25;3.90;;;21.10;99.90;;;21.49;74.85;100877.13;5114890;28;20122;-61
2022/06/25 05:44:07;;;;;;;7.07;4.47;;;21.10;99.90;;;21.56;74.69;100875.88;5114482;28;20124;-61
2022/06/25 05:46:35;;;;;;;7.22;4.15;;;21.10;99.90;;;21.69;74.89;100875.25;5114363;28;20052;-62
2022/06/25 05:49:04;;;;;;;11.13;4.18;;;21.20;99.90;;;21.75;74.43;100865.06;5114527;28;20123;-61
2022/06/25 05:51:32;;;;;;;12.10;4.28;;;21.30;99.90;;;21.74;73.94;100868.69;5114874;28;20116;-61
2022/06/25 05:54:02;;;;;;;8.55;4.53;;;21.30;99.90;;;21.86;74.27;100880.69;5114302;28;20054;-61
2022/06/25 05:56:30;;;;;;;6.22;3.83;;;21.40;99.90;;;21.94;73.76;100886.56;5114491;28;20151;-62
2022/06/25 05:58:59;;;;;;;6.75;4.15;;;21.50;99.90;;;21.91;72.96;100889.44;5114080;28;20363;-62
2022/06/25 06:01:30;;;;;;;6.95;4.18;;;21.50;99.90;;;21.95;73.24;100888.34;5096048;28;20047;-62
2022/06/25 06:03:58;;;;;;;8.88;4.20;;;21.50;99.90;;;21.97;73.23;100889.97;5114061;28;20131;-62
2022/06/25 06:06:27;;;;;;;8.80;3.97;;;21.50;99.90;;;21.96;73.07;100890.94;5113962;28;20542;-61
2022/06/25 06:08:55;;;;;;;6.70;4.30;;;21.50;99.90;;;21.94;73.51;100890.16;5114089;28;20090;-61
2022/06/25 06:11:24;;;;;;;6.75;4.60;;;21.50;99.90;;;21.93;73.71;100898.31;5095839;28;20484;-61
2022/06/25 06:13:53;;;;;;;10.05;5.13;;;21.50;99.90;;;21.82;73.30;100893.47;5114076;28;20138;-61
2022/06/25 06:16:21;;;;;;;5.13;4.07;;;21.40;99.90;;;21.89;72.80;100916.44;5113780;28;20109;-62
2022/06/25 06:18:50;;;;;;;11.63;4.28;;;21.50;99.90;;;21.95;72.65;100908.03;5113838;28;20048;-62
2022/06/25 06:21:18;;;;;;;7.78;4.53;;;21.50;99.90;;;22.02;73.01;100917.59;5113588;28;20061;-61
2022/06/25 06:23:46;;;;;;;7.15;4.20;;;21.60;99.90;;;22.03;72.37;100918.44;5113627;28;20612;-62
2022/06/25 06:26:14;;;;;;;8.57;3.90;;;21.60;99.90;;;22.02;72.71;100932.88;5095539;28;20066;-62
2022/06/25 06:28:44;;;;;;;6.05;4.10;;;21.60;99.90;;;21.90;72.38;100912.81;5113720;28;20120;-62
2022/06/25 06:31:12;;;;;;;7.23;3.87;;;21.60;99.90;;;22.00;71.79;100938.34;5113732;28;20063;-62
2022/06/25 06:33:41;;;;;;;6.88;4.10;;;21.60;99.90;;;22.03;72.20;100934.59;5113519;28;20287;-61
2022/06/25 06:36:10;;;;;;;8.88;4.28;;;21.60;99.90;;;21.99;72.12;100933.03;5113568;28;20127;-61
2022/06/25 06:38:38;;;;;;;9.88;3.97;;;21.60;99.90;;;22.05;72.59;100938.97;5113787;28;20504;-62
2022/06/25 06:41:06;;;;;;;6.90;4.00;;;21.60;99.90;;;22.02;73.11;100933.75;5113796;28;20070;-62
2022/06/25 06:43:35;;;;;;;8.00;3.80;;;21.60;99.90;;;22.06;72.90;100939.84;5113440;28;20039;-62
2022/06/25 06:46:05;;;;;;;5.68;4.13;;;21.60;99.90;;;22.00;72.39;100941.03;5095366;28;20056;-62
2022/06/25 06:48:34;;;;;;;9.57;4.15;;;21.60;99.90;;;22.05;72.86;100941.66;5113406;28;20039;-62
2022/06/25 06:51:02;;;;;;;10.25;4.75;;;21.60;99.90;;;22.08;73.17;100944.22;5095300;28;20047;-62
2022/06/25 06:53:31;;;;;;;6.45;4.53;;;21.60;99.90;;;21.94;72.91;100925.19;5095664;28;20057;-62
2022/06/25 06:56:00;;;;;;;7.22;4.28;;;21.60;99.90;;;21.89;73.79;100929.06;5113457;28;20046;-61
2022/06/25 06:58:29;;;;;;;10.02;5.05;;;21.60;99.90;;;22.00;73.25;100956.31;5113073;28;20161;-62
2022/06/25 07:00:57;;;;;;;5.20;4.57;;;21.60;99.90;;;21.98;73.41;100956.41;5113118;28;20481;-62
2022/06/25 07:03:28;;;;;;;9.00;4.78;;;21.60;99.90;;;21.94;72.89;100957.50;5112769;28;20063;-62
2022/06/25 07:05:56;;;;;;;;;;;21.50;99.90;;;21.87;72.62;100956.06;5113686;28;20050;-61
2022/06/25 07:08:25;;;;;;;10.93;4.70;;;21.50;99.90;;;21.86;73.04;100958.81;5112934;28;19926;-61
2022/06/25 07:10:53;;;;;;;5.57;4.55;;;21.40;99.90;;;21.94;73.03;100952.13;5113329;28;20043;-62
2022/06/25 07:13:22;;;;;;;6.82;4.32;;;21.50;99.90;;;21.90;72.80;100953.22;5113050;28;20127;-63
2022/06/25 07:15:50;;;;;;;10.65;4.90;;;21.50;99.90;;;21.91;73.36;100962.19;5113334;28;20119;-62
2022/06/25 07:18:18;;;;;;;14.85;5.10;;;21.50;99.90;;;21.93;72.78;100955.75;5113120;28;20054;-62
2022/06/25 07:20:48;;;;;;;10.70;4.78;;;21.50;99.90;;;22.00;72.87;100975.19;5112597;28;20059;-62
2022/06/25 07:23:19;;;;;;;7.15;4.35;;;21.50;99.90;;;21.98;72.95;100969.88;5112535;28;20052;-62
2022/06/25 07:25:48;;;;;;;9.15;4.97;;;21.60;99.90;;;22.01;73.08;100976.94;5112709;28;20058;-62
2022/06/25 07:28:16;;;;;;;7.47;4.10;;;21.60;99.90;;;22.02;72.32;100973.28;5113012;28;20077;-61
2022/06/25 07:30:44;;;;;;;11.43;4.00;;;21.60;99.90;;;22.07;71.55;100988.25;5112769;28;20541;-62
2022/06/25 07:33:13;;;;;;;4.15;3.55;;;21.70;99.90;;;22.07;71.04;100990.06;5111801;28;20069;-62
2022/06/25 07:35:41;;;;;;;6.25;3.72;;;21.70;99.90;;;22.02;70.31;100992.13;5112442;28;20039;-62
2022/06/25 07:38:11;;;;;;;24.35;5.13;;;21.60;99.90;;;21.99;70.07;100987.75;5112849;28;20043;-61
2022/06/25 07:40:39;;;;;;;6.35;3.63;;;21.60;99.90;;;22.05;69.98;100997.38;5113235;28;20046;-62
2022/06/25 07:43:07;;;;;;;12.98;5.07;;;21.60;99.90;;;22.04;69.96;100996.50;5112691;28;20043;-61
2022/06/25 07:45:36;;;;;;;9.43;4.53;;;21.60;99.90;;;22.06;69.92;100993.75;5094475;28;20481;-61
2022/06/25 07:48:09;;;;;;;11.90;4.00;;;21.60;99.90;;;22.08;70.02;100997.22;5112552;28;20051;-62
2022/06/25 07:53:25;;;;;;;11.30;4.68;;;21.60;99.90;;;22.04;69.92;100996.50;5112307;28;20066;-61
2022/06/25 07:55:53;;;;;;;10.10;3.85;;;21.60;99.90;;;22.01;69.91;100998.50;5112088;28;20035;-62
2022/06/25 07:58:23;;;;;;;7.78;4.20;;;21.60;99.90;;;22.05;69.90;101009.03;5112497;28;20043;-62
2022/06/25 08:00:52;;;;;;;8.63;4.13;;;21.60;99.90;;;22.01;70.39;100998.50;5112447;28;20069;-61
2022/06/25 08:03:20;;;;;;;8.25;3.78;;;21.60;99.90;;;22.00;70.16;101004.81;5112437;28;20397;-62
2022/06/25 08:05:49;;;;;;;9.63;4.30;;;21.60;99.90;;;22.09;70.14;101005.22;5112253;28;20385;-61
2022/06/25 08:08:17;;;;;;;9.40;4.55;;;21.60;99.90;;;22.14;69.84;101003.16;5112412;28;20504;-62
2022/06/25 08:10:47;;;;;;;10.15;4.45;;;21.70;99.90;;;22.20;69.78;101000.16;5112315;28;20131;-62
2022/06/25 08:13:21;;;;;;;9.13;4.15;;;21.80;99.90;;;22.23;69.94;101000.03;5112158;28;20039;-62
2022/06/25 08:15:50;;;;;;;15.95;4.90;;;21.80;99.90;;;22.23;70.04;101002.72;5111845;28;20053;-61
2022/06/25 08:18:20;;;;;;;11.98;4.55;;;21.90;99.90;;;22.33;69.85;101011.22;5112050;28;20430;-61
2022/06/25 08:20:49;;;;;;;;;;;21.90;99.90;;;22.37;69.22;101013.69;5112856;28;20043;-61
2022/06/25 08:23:17;;;;;;;7.63;4.07;;;22.00;99.90;;;22.42;68.57;101010.75;5112254;28;20018;-61
2022/06/25 08:25:47;;;;;;;14.73;4.15;;;22.00;99.90;;;22.24;67.99;100977.50;5112105;28;20048;-62
2022/06/25 08:28:15;;;;;;;11.50;4.70;;;22.00;99.90;;;22.42;67.63;101014.31;5112063;28;20076;-62
2022/06/25 08:30:45;;;;;;;7.50;4.55;;;22.00;99.90;;;22.48;67.06;101021.22;5111979;28;20039;-62
2022/06/25 08:33:14;;;;;;;11.32;4.55;;;22.10;99.90;;;22.40;66.00;101023.44;5111728;28;20036;-62
2022/06/25 08:35:43;;;;;;;11.10;4.63;;;22.00;99.90;;;22.32;65.39;101023.81;5111938;28;20065;-61
2022/06/25 08:38:12;;;;;;;9.75;4.35;;;21.90;99.90;;;22.25;65.35;101033.16;5111897;28;20050;-61
2022/06/25 08:40:40;;;;;;;13.05;4.68;;;21.80;99.90;;;22.24;65.25;101025.19;5112019;28;20048;-62
2022/06/25 08:43:13;;;;;;;9.15;3.60;;;21.80;99.90;;;22.29;65.21;101037.47;5113095;28;20050;-62
2022/06/25 08:45:42;;;;;;;11.48;4.28;;;21.80;99.90;;;22.29;64.89;101040.16;5115787;28;20519;-62
2022/06/25 08:48:17;;;;;;;7.35;3.88;;;21.80;99.90;;;22.18;64.22;101034.41;5116089;28;20100;-62
2022/06/25 08:50:45;;;;;;;6.35;3.78;;;21.80;99.90;;;22.16;63.65;101039.00;5116343;28;20130;-62
2022/06/25 08:53:14;;;;;;;8.30;3.72;;;21.80;99.90;;;22.14;62.97;101045.44;5115685;28;20138;-62
2022/06/25 08:55:44;;;;;;;7.75;4.38;;;21.70;99.90;;;22.18;62.99;101041.66;5115766;28;20039;-61
2022/06/25 08:58:16;;;;;;;9.93;3.80;;;21.70;99.90;;;22.16;63.22;101039.00;5115616;28;20039;-62
2022/06/25 09:00:46;;;;;;;11.77;4.20;;;21.70;99.90;;;22.21;64.25;101042.34;5115865;28;20051;-62
2022/06/25 09:03:14;;;;;;;10.23;4.22;;;21.80;99.90;;;22.17;63.91;101046.16;5115524;28;20046;-62
2022/06/25 09:05:45;;;;;;;12.20;4.68;;;21.80;99.90;;;22.19;63.46;101044.25;5115383;28;20465;-62
2022/06/25 09:08:16;;;;;;;8.68;4.15;;;21.80;99.90;;;22.17;64.29;101045.28;5115715;28;20043;-62
2022/06/25 09:10:46;;;;;;;;;;;21.80;99.90;;;21.91;64.68;101013.34;5116080;28;20100;-62
2022/06/25 09:13:15;;;;;;;11.10;4.03;;;21.80;99.90;;;22.06;64.98;101048.50;5115349;28;19955;-62
2022/06/25 09:15:46;;;;;;;12.40;4.80;;;21.70;99.90;;;21.97;65.33;101062.41;5114861;28;20469;-61
2022/06/25 09:18:15;;;;;;;;;;;21.60;99.90;;;22.09;65.52;101055.53;5115284;28;20039;-61
2022/06/25 09:20:59;;;;;;;10.73;4.70;;;21.60;99.90;;;22.14;65.94;101065.16;5115041;28;19919;-62
2022/06/25 09:23:29;;;;;;;10.02;4.78;;;21.70;99.90;;;22.17;66.24;101056.06;5114994;28;20156;-61
2022/06/25 09:26:07;;;;;;;9.63;4.68;;;21.70;99.90;;;22.20;66.79;101069.41;5114743;28;20401;-62
2022/06/25 09:28:38;;;;;;;15.60;5.03;;;21.70;99.90;;;21.84;66.55;101012.78;5115139;28;20074;-61
2022/06/25 09:31:07;;;;;;;11.55;5.13;;;21.70;99.90;;;22.03;67.14;101064.81;5115180;28;20065;-61
2022/06/25 09:33:38;;;;;;;8.68;4.53;;;21.60;99.90;;;21.96;67.99;101079.53;5114845;28;20039;-61
2022/06/25 09:36:09;;;;;;;10.93;4.72;;;21.50;99.90;;;21.83;68.20;101080.19;5114751;28;20040;-61
2022/06/25 09:38:49;;;;;;;9.00;4.60;;;21.40;99.90;;;21.71;69.16;101059.19;5096566;28;20074;-61
2022/06/25 09:41:17;;;;;;;11.45;4.68;;;21.30;99.90;;;21.76;69.80;101078.69;5115080;28;20063;-62
2022/06/25 09:43:47;;;;;;;16.65;5.82;;;21.30;99.90;;;21.79;69.96;101081.25;5114641;28;20122;-61
2022/06/25 09:46:17;;;;;;;13.82;5.60;;;21.30;99.90;;;21.70;70.78;101079.84;5096299;28;20044;-61
2022/06/25 09:48:46;;;;;;;14.80;5.60;;;21.30;99.90;;;21.69;72.05;101088.00;5114537;28;20040;-61
2022/06/25 09:51:18;;;;;;;13.30;5.28;;;21.20;99.90;;;21.60;72.07;101080.34;5114698;28;20413;-60
2022/06/25 09:53:50;;;;;;;12.68;5.65;;;21.20;99.90;;;21.60;72.01;101077.66;5114717;28;20509;-61
2022/06/25 09:56:21;;;;;;;12.35;5.22;;;21.10;99.90;;;21.64;72.32;101081.97;5113587;28;20092;-61
2022/06/25 09:58:53;;;;;;;13.15;5.15;;;21.20;99.90;;;21.65;72.11;101073.81;5114692;28;20047;-61
2022/06/25 10:01:23;;;;;;;13.07;5.65;;;21.20;99.90;;;21.74;72.04;101083.28;5114724;28;20430;-61
2022/06/25 10:03:53;;;;;;;17.70;4.72;;;21.30;99.90;;;21.73;71.65;101087.78;5114382;28;20412;-61
2022/06/25 10:06:24;;;;;;;14.18;4.75;;;21.30;99.90;;;21.71;71.67;101084.31;5114655;28;20082;-61
2022/06/25 10:08:56;;;;;;;13.35;5.43;;;21.30;99.90;;;21.78;72.05;101092.94;5114263;28;20145;-61
2022/06/25 10:11:27;;;;;;;9.93;4.50;;;21.30;99.90;;;21.80;71.53;101086.59;5114481;28;20093;-61
2022/06/25 10:13:58;;;;;;;13.18;5.28;;;21.30;99.90;;;21.88;71.39;101089.78;5114331;28;20088;-61
2022/06/25 10:16:29;;;;;;;11.90;4.72;;;21.40;99.90;;;21.99;71.39;101079.38;5113974;28;20039;-61
2022/06/25 10:18:59;;;;;;;13.75;5.30;;;21.60;99.90;;;22.14;71.34;101080.47;5114005;28;20066;-61
2022/06/25 10:21:27;;;;;;;13.90;5.10;;;21.70;99.90;;;22.31;71.62;101077.81;5114315;28;20074;-61
2022/06/25 10:24:00;;;;;;;13.55;5.35;;;21.90;99.90;;;22.55;71.24;101091.91;5113733;28;20051;-61
2022/06/25 10:26:30;;;;;;;10.13;5.00;;;22.20;99.90;;;22.72;69.97;101079.34;5113758;28;20047;-61
2022/06/25 10:29:02;;;;;;;12.60;4.78;;;22.40;99.90;;;22.48;68.94;101015.84;5113878;28;20122;-60
2022/06/25 10:31:30;;;;;;;11.80;5.57;;;22.50;99.90;;;22.99;66.80;101086.03;5113738;28;20086;-61
2022/06/25 10:34:02;;;;;;;9.93;4.30;;;22.70;99.90;;;23.14;66.64;101089.72;5113463;28;20568;-61